Senia, North Carolina
Current Conditions -  °F | °C
As of 5:15 AM on Friday 24 Oct 2014 (Local Time) from KTNB Reporting Station
Clear Clear  
Wind Chill: 41°   Ceiling: Unl
Heat Index: 41°   Visibility: 10mi
Dew Point: 34°   Wind: 3mph
Humidity: 77%   Direction: 270°W
Pressure: 30.08"   Gusts: NA
Location:  36.0227°N, 81.9499°W
Report Text: KTNB 240915Z AUTO 27003KT 10SM CLR 05/01 A3008 RMK AO2 T00500012
Loading
Personal Weather Stations






























Interactive Weather Map
Tropical Storm Tracking
New forecast layout! Learn more

10-Day Weather Forecast

Advertisements
Track Severe Weather on mobile